createdAt,value
2019-03-10T10:36:28.023Z,31.97
2019-03-10T10:39:17.642Z,36.48
2019-03-10T10:43:01.604Z,31.48
2019-03-10T10:45:49.936Z,31.12
2019-03-10T10:48:29.071Z,25.97
2019-03-10T10:51:02.243Z,25.43
2019-03-10T10:53:35.234Z,28.00
2019-03-10T10:56:04.654Z,26.80
2019-03-10T10:58:36.777Z,25.23
2019-03-10T11:01:21.985Z,30.20
2019-03-10T11:03:54.768Z,28.02
2019-03-10T11:06:24.799Z,19.90
2019-03-10T11:09:03.506Z,23.85
2019-03-10T11:11:45.091Z,26.87
2019-03-10T11:14:31.805Z,32.98
2019-03-10T11:17:19.846Z,38.73
2019-03-10T11:19:55.698Z,19.23
2019-03-10T11:22:31.747Z,25.82
2019-03-10T11:25:04.874Z,33.40
2019-03-10T11:27:53.194Z,20.97
2019-03-10T11:30:23.315Z,24.52
2019-03-10T11:32:56.698Z,28.95
2019-03-10T11:35:42.696Z,30.77
2019-03-10T11:38:15.575Z,29.05
2019-03-10T11:41:00.643Z,30.08
2019-03-10T11:43:48.887Z,31.27
2019-03-10T11:46:34.165Z,39.27
2019-03-10T11:49:07.039Z,23.55
2019-03-10T11:51:46.282Z,27.80
2019-03-10T11:54:19.568Z,32.08
2019-03-10T11:56:58.299Z,30.68
2019-03-10T11:59:34.347Z,32.25
2019-03-10T12:02:15.247Z,31.75
2019-03-10T12:04:39.506Z,23.92
2019-03-10T12:07:09.422Z,24.32
2019-03-10T12:09:37.386Z,25.80
2019-03-10T12:12:05.457Z,30.10
2019-03-10T12:14:33.421Z,26.20
2019-03-10T12:17:01.294Z,33.70
2019-03-10T12:19:29.481Z,29.98
2019-03-10T12:21:57.338Z,26.05
2019-03-10T12:24:25.305Z,35.78
2019-03-10T12:26:53.415Z,28.17
2019-03-10T12:29:21.342Z,34.67
2019-03-10T12:31:49.621Z,27.93
2019-03-10T12:34:17.481Z,26.37
2019-03-10T12:36:45.442Z,21.10
2019-03-10T12:39:13.414Z,22.70
2019-03-10T12:41:41.489Z,22.62
2019-03-10T12:44:09.665Z,24.25
2019-03-10T12:46:37.834Z,21.90
2019-03-10T12:49:05.899Z,26.73
2019-03-10T12:51:33.666Z,25.72
2019-03-10T12:54:03.997Z,22.02
2019-03-10T12:56:31.761Z,22.07
2019-03-10T12:58:59.929Z,32.08
2019-03-10T13:01:28.510Z,26.68
2019-03-10T13:03:59.196Z,13.93
2019-03-10T13:06:26.294Z,12.00
2019-03-10T13:08:59.276Z,21.70
2019-03-10T13:11:29.094Z,27.90
2019-03-10T13:13:57.063Z,34.10
2019-03-10T13:16:24.941Z,27.75
2019-03-10T13:18:52.791Z,32.40
2019-03-10T13:21:21.103Z,24.05
2019-03-10T13:23:49.238Z,20.15
2019-03-10T13:26:17.415Z,29.92
2019-03-10T13:28:45.386Z,24.63
2019-03-10T13:31:13.149Z,35.23
2019-03-10T13:33:41.626Z,25.95
2019-03-10T13:36:09.595Z,29.57
2019-03-10T13:38:37.766Z,26.45
2019-03-10T13:41:05.838Z,34.25
2019-03-10T13:43:33.602Z,33.45
2019-03-10T13:46:01.883Z,35.75
2019-03-10T13:48:29.745Z,29.82
2019-03-10T13:50:57.614Z,38.33
2019-03-10T13:53:26.194Z,28.00
2019-03-10T13:55:54.156Z,27.52
2019-03-10T13:58:22.231Z,25.55
2019-03-10T14:00:50.511Z,23.40
2019-03-10T14:03:18.882Z,23.75
2019-03-10T14:05:46.686Z,26.95
2019-03-10T14:08:14.828Z,22.50
2019-03-10T14:10:42.841Z,32.38
2019-03-10T14:13:11.118Z,41.73
2019-03-10T14:15:39.235Z,39.05
2019-03-10T14:18:07.117Z,31.30
2019-03-10T14:20:35.181Z,32.95
2019-03-10T14:23:03.961Z,34.90
2019-03-10T14:25:32.044Z,37.38
2019-03-10T14:28:00.106Z,38.30
2019-03-10T14:30:28.271Z,45.83
2019-03-10T14:32:56.251Z,43.20
2019-03-10T14:35:24.123Z,33.20
2019-03-10T14:37:52.601Z,19.20
2019-03-10T14:40:20.972Z,15.93
2019-03-10T14:42:48.746Z,15.55
2019-03-10T14:45:17.380Z,8.48
2019-03-10T14:47:45.092Z,7.65
2019-03-10T14:50:17.489Z,7.25
2019-03-10T14:52:45.838Z,10.68
2019-03-10T14:55:16.371Z,11.85
2019-03-10T14:57:45.872Z,12.58
2019-03-10T15:00:25.717Z,13.93
2019-03-10T15:02:53.888Z,17.30
2019-03-10T15:05:21.676Z,8.93
2019-03-10T15:07:49.417Z,11.30
2019-03-10T15:10:17.176Z,8.83
2019-03-10T15:12:45.047Z,7.33
2019-03-10T15:15:22.117Z,10.45
2019-03-10T15:17:43.953Z,5.37
2019-03-10T15:20:14.085Z,9.75
2019-03-10T15:22:42.141Z,4.10
2019-03-10T15:25:15.126Z,7.30
2019-03-10T15:27:42.804Z,7.72
2019-03-10T15:30:19.877Z,6.67
2019-03-10T15:32:47.739Z,25.57
2019-03-10T15:35:15.818Z,7.90
2019-03-10T15:37:44.342Z,10.00
2019-03-10T15:40:17.584Z,12.20
2019-03-10T15:42:45.342Z,10.50
2019-03-10T15:45:14.439Z,16.57
2019-03-10T15:47:41.897Z,18.40
2019-03-10T15:50:25.229Z,16.40
2019-03-10T15:52:53.095Z,12.93
2019-03-10T15:55:21.167Z,16.10
2019-03-10T15:57:50.808Z,15.72
2019-03-10T16:00:24.264Z,17.77
2019-03-10T16:02:52.560Z,23.25
2019-03-10T16:05:20.207Z,21.75
2019-03-10T16:07:48.179Z,20.25
2019-03-10T16:10:16.247Z,20.52
2019-03-10T16:12:44.009Z,19.92
2019-03-10T16:15:23.448Z,19.02
2019-03-10T16:17:51.515Z,17.95
2019-03-10T16:20:20.196Z,14.20
2019-03-10T16:22:48.065Z,13.50
2019-03-10T16:25:16.959Z,17.15
2019-03-10T16:27:44.618Z,18.90
2019-03-10T16:30:15.146Z,21.42
2019-03-10T16:32:42.605Z,19.42
2019-03-10T16:35:10.595Z,21.85
2019-03-10T16:37:38.767Z,20.05
2019-03-10T16:40:09.991Z,14.03
2019-03-10T16:42:37.656Z,17.82
2019-03-10T16:45:09.015Z,12.47
2019-03-10T16:47:36.563Z,11.95
2019-03-10T16:50:09.365Z,10.80
2019-03-10T16:52:37.105Z,17.02
2019-03-10T16:55:08.099Z,13.15
2019-03-10T16:57:35.604Z,14.03
2019-03-10T17:00:04.813Z,12.93
2019-03-10T17:02:33.387Z,11.57
2019-03-10T17:05:01.569Z,17.80
2019-03-10T17:07:29.502Z,16.17
2019-03-10T17:09:57.218Z,11.80
2019-03-10T17:12:24.954Z,15.38
2019-03-10T17:14:52.722Z,13.32
2019-03-10T17:17:20.482Z,12.55
2019-03-10T17:19:48.239Z,13.88
2019-03-10T17:22:16.831Z,10.93
2019-03-10T17:24:44.602Z,14.70
2019-03-10T17:27:12.246Z,13.50
2019-03-10T17:29:40.011Z,11.68
2019-03-10T17:32:07.788Z,9.85
2019-03-10T17:34:35.533Z,17.20
2019-03-10T17:37:04.096Z,12.15
2019-03-10T17:39:31.886Z,12.03
2019-03-10T17:41:59.653Z,18.20
2019-03-10T17:44:27.409Z,16.93
2019-03-10T17:46:55.381Z,11.22
2019-03-10T17:49:23.139Z,10.93
2019-03-10T17:51:50.919Z,14.85
2019-03-10T17:54:19.212Z,14.87
2019-03-10T17:56:46.774Z,14.63
2019-03-10T17:59:14.511Z,17.65
2019-03-10T18:01:42.786Z,33.28
2019-03-10T18:04:10.444Z,12.55
2019-03-10T18:06:38.539Z,16.25
2019-03-10T18:09:07.646Z,12.68
2019-03-10T18:11:35.890Z,14.70
2019-03-10T18:14:04.157Z,12.28
2019-03-10T18:16:33.553Z,10.80
2019-03-10T18:19:01.327Z,14.15
2019-03-10T18:21:29.093Z,11.83
2019-03-10T18:23:56.964Z,9.90
2019-03-10T18:26:24.820Z,10.03
2019-03-10T18:28:52.586Z,10.53
2019-03-10T18:31:20.352Z,25.02
2019-03-10T18:33:48.324Z,14.40
2019-03-10T18:36:16.185Z,13.58
2019-03-10T18:38:43.950Z,12.75
2019-03-10T18:41:11.812Z,15.60
2019-03-10T18:43:39.803Z,11.93
2019-03-10T18:46:07.848Z,10.58
2019-03-10T18:48:37.056Z,9.53
2019-03-10T18:51:04.819Z,12.20
2019-03-10T18:53:33.907Z,15.43
2019-03-10T18:56:01.674Z,11.60
2019-03-10T18:58:29.540Z,14.35
2019-03-10T19:00:57.921Z,12.50
2019-03-10T19:03:25.474Z,11.73
2019-03-10T19:05:53.235Z,11.25
2019-03-10T19:08:21.005Z,9.43
2019-03-10T19:10:48.766Z,15.28
2019-03-10T19:13:16.635Z,9.35
2019-03-10T19:15:44.394Z,7.72
2019-03-10T19:18:12.259Z,10.13
2019-03-10T19:20:40.335Z,9.33
2019-03-10T19:23:08.609Z,10.15
2019-03-10T19:25:36.476Z,9.43
2019-03-10T19:28:04.338Z,8.43
2019-03-10T19:30:32.100Z,16.95
2019-03-10T19:32:59.970Z,8.48
2019-03-10T19:35:28.152Z,13.28
2019-03-10T19:37:56.009Z,11.00
2019-03-10T19:40:23.774Z,12.43
2019-03-10T19:42:51.656Z,16.17
2019-03-10T19:45:23.090Z,10.15
2019-03-10T19:47:50.551Z,16.02
2019-03-10T19:50:21.484Z,14.95
2019-03-10T19:52:49.465Z,20.37
2019-03-10T19:55:17.730Z,18.40
2019-03-10T19:57:45.496Z,28.62
2019-03-10T20:00:17.766Z,22.45
2019-03-10T20:02:46.461Z,24.87
2019-03-10T20:05:15.238Z,25.15
2019-03-10T20:07:43.718Z,25.65
2019-03-10T20:10:14.448Z,24.60
2019-03-10T20:12:42.413Z,22.77
2019-03-10T20:15:13.780Z,21.27
2019-03-10T20:17:42.145Z,26.55
2019-03-10T20:20:12.059Z,18.35
2019-03-10T20:22:39.719Z,22.55
2019-03-10T20:25:12.572Z,15.93
2019-03-10T20:27:40.060Z,22.60
2019-03-10T20:30:11.311Z,13.98
2019-03-10T20:32:38.761Z,13.10
2019-03-10T20:35:06.643Z,12.98
2019-03-10T20:37:34.489Z,12.43
2019-03-10T20:40:05.031Z,11.68
2019-03-10T20:42:32.582Z,9.75
2019-03-10T20:45:00.456Z,20.37
2019-03-10T20:47:28.212Z,11.28
2019-03-10T20:49:55.983Z,12.65
2019-03-10T20:52:24.664Z,12.58
2019-03-10T20:54:53.034Z,9.90
2019-03-10T20:57:21.826Z,9.80
2019-03-10T20:59:59.965Z,10.05
2019-03-10T21:02:20.016Z,8.78
2019-03-10T21:04:47.877Z,12.95
2019-03-10T21:07:15.649Z,11.97
2019-03-10T21:09:43.410Z,12.35
2019-03-10T21:12:11.276Z,14.30
2019-03-10T21:14:38.947Z,19.85
2019-03-10T21:17:06.702Z,28.52
2019-03-10T21:19:34.670Z,34.25
2019-03-10T21:22:02.640Z,48.58
2019-03-10T21:24:30.607Z,48.05
2019-03-10T21:26:59.087Z,40.78
2019-03-10T21:29:26.848Z,34.43
2019-03-10T21:31:54.919Z,28.80
2019-03-10T21:34:22.889Z,31.02
2019-03-10T21:36:51.068Z,36.83
2019-03-10T21:39:19.849Z,32.10
2019-03-10T21:41:47.927Z,31.90
2019-03-10T21:44:26.052Z,28.42
2019-03-10T21:46:45.502Z,28.17
2019-03-10T21:49:13.468Z,28.10
2019-03-10T21:51:41.435Z,24.18
2019-03-10T21:54:09.915Z,26.57
2019-03-10T21:56:37.980Z,21.52
2019-03-10T21:59:05.749Z,23.85
2019-03-10T22:01:35.253Z,19.62
2019-03-10T22:04:02.713Z,23.50
2019-03-10T22:06:31.290Z,23.05
2019-03-10T22:08:59.161Z,23.20
2019-03-10T22:11:27.024Z,20.25
2019-03-10T22:13:54.994Z,20.15
2019-03-10T22:16:22.661Z,20.55
2019-03-10T22:18:50.515Z,19.52
2019-03-10T22:21:18.496Z,25.60
2019-03-10T22:23:46.252Z,20.97
2019-03-10T22:26:14.117Z,19.82
2019-03-10T22:28:41.900Z,20.27
2019-03-10T22:31:09.851Z,14.15
2019-03-10T22:33:37.618Z,20.17
2019-03-10T22:36:05.481Z,18.35
2019-03-10T22:38:33.349Z,13.65
2019-03-10T22:41:01.108Z,12.30
2019-03-10T22:43:28.875Z,16.15
2019-03-10T22:45:56.637Z,13.45
2019-03-10T22:48:24.403Z,16.27
2019-03-10T22:50:52.078Z,12.93
2019-03-10T22:53:20.336Z,10.80
2019-03-10T22:55:48.104Z,7.15
2019-03-10T22:58:15.869Z,9.40
2019-03-10T23:00:46.096Z,12.07
2019-03-10T23:03:14.478Z,11.22
2019-03-10T23:05:42.234Z,21.60
2019-03-10T23:08:09.995Z,25.30
2019-03-10T23:10:37.756Z,14.55
2019-03-10T23:13:05.415Z,20.85
2019-03-10T23:15:33.489Z,18.82
2019-03-10T23:18:01.355Z,23.25
2019-03-10T23:20:29.336Z,22.35
2019-03-10T23:22:57.293Z,22.07
2019-03-10T23:25:25.775Z,18.52
2019-03-10T23:27:53.741Z,17.65
2019-03-10T23:30:21.301Z,20.60
2019-03-10T23:32:49.169Z,22.93
2019-03-10T23:35:17.133Z,26.90
2019-03-10T23:37:46.020Z,25.00
2019-03-10T23:40:18.089Z,20.90
2019-03-10T23:42:45.451Z,26.68
2019-03-10T23:45:14.536Z,23.45
2019-03-10T23:47:42.100Z,24.55
2019-03-10T23:50:12.828Z,23.25
2019-03-10T23:52:41.207Z,26.02
2019-03-10T23:55:10.407Z,24.77
2019-03-10T23:57:37.865Z,25.60
